sensor_id;sensor_type;location;lat;lon;timestamp;pressure;altitude;pressure_sealevel;temperature;humidity
63111;BME280;49201;53.426;10.300;2022-12-29T00:01:31;100206.09;;;8.08;100.00
63111;BME280;49201;53.426;10.300;2022-12-29T00:03:57;100180.59;;;8.08;100.00
63111;BME280;49201;53.426;10.300;2022-12-29T00:06:22;100184.00;;;8.07;100.00
63111;BME280;49201;53.426;10.300;2022-12-29T00:08:48;100181.41;;;8.05;100.00
63111;BME280;49201;53.426;10.300;2022-12-29T00:11:16;100185.59;;;8.02;100.00
63111;BME280;49201;53.426;10.300;2022-12-29T00:13:42;100175.44;;;8.03;100.00
63111;BME280;49201;53.426;10.300;2022-12-29T00:16:27;100171.97;;;8.01;100.00
63111;BME280;49201;53.426;10.300;2022-12-29T00:18:52;100181.41;;;8.05;100.00
63111;BME280;49201;53.426;10.300;2022-12-29T00:21:21;100182.34;;;8.10;100.00
63111;BME280;49201;53.426;10.300;2022-12-29T00:24:05;100172.22;;;8.13;100.00
63111;BME280;49201;53.426;10.300;2022-12-29T00:27:10;100173.09;;;8.15;100.00
63111;BME280;49201;53.426;10.300;2022-12-29T00:29:55;100174.94;;;8.21;100.00
63111;BME280;49201;53.426;10.300;2022-12-29T00:32:39;100183.50;;;8.24;100.00
63111;BME280;49201;53.426;10.300;2022-12-29T00:35:29;100182.72;;;8.28;100.00
63111;BME280;49201;53.426;10.300;2022-12-29T00:37:57;100167.47;;;8.33;100.00
63111;BME280;49201;53.426;10.300;2022-12-29T00:40:42;100165.84;;;8.35;100.00
63111;BME280;49201;53.426;10.300;2022-12-29T00:43:26;100176.94;;;8.38;100.00
63111;BME280;49201;53.426;10.300;2022-12-29T00:46:10;100163.34;;;8.39;100.00
63111;BME280;49201;53.426;10.300;2022-12-29T00:48:35;100165.94;;;8.41;100.00
63111;BME280;49201;53.426;10.300;2022-12-29T00:51:19;100159.16;;;8.44;100.00
63111;BME280;49201;53.426;10.300;2022-12-29T00:53:45;100147.38;;;8.49;100.00
63111;BME280;49201;53.426;10.300;2022-12-29T00:56:10;100157.63;;;8.52;100.00
63111;BME280;49201;53.426;10.300;2022-12-29T00:58:35;100153.41;;;8.54;100.00
63111;BME280;49201;53.426;10.300;2022-12-29T01:01:05;100151.75;;;8.58;100.00
63111;BME280;49201;53.426;10.300;2022-12-29T01:03:32;100145.00;;;8.61;100.00
63111;BME280;49201;53.426;10.300;2022-12-29T01:06:02;100151.03;;;8.66;100.00
63111;BME280;49201;53.426;10.300;2022-12-29T01:08:28;100156.25;;;8.72;100.00
63111;BME280;49201;53.426;10.300;2022-12-29T01:11:06;100146.97;;;8.79;100.00
63111;BME280;49201;53.426;10.300;2022-12-29T01:13:32;100138.63;;;8.87;100.00
63111;BME280;49201;53.426;10.300;2022-12-29T01:15:57;100136.06;;;8.87;100.00
63111;BME280;49201;53.426;10.300;2022-12-29T01:18:23;100130.06;;;8.85;100.00
63111;BME280;49201;53.426;10.300;2022-12-29T01:20:51;100111.41;;;8.89;100.00
63111;BME280;49201;53.426;10.300;2022-12-29T01:23:16;100113.97;;;8.91;100.00
63111;BME280;49201;53.426;10.300;2022-12-29T01:25:44;100117.38;;;8.90;100.00
63111;BME280;49201;53.426;10.300;2022-12-29T01:28:09;100118.19;;;8.87;100.00
63111;BME280;49201;53.426;10.300;2022-12-29T01:30:35;100108.78;;;8.85;100.00
63111;BME280;49201;53.426;10.300;2022-12-29T01:33:01;100103.59;;;8.80;100.00
63111;BME280;49201;53.426;10.300;2022-12-29T01:35:27;100103.66;;;8.83;100.00
63111;BME280;49201;53.426;10.300;2022-12-29T01:37:52;100109.63;;;8.82;100.00
63111;BME280;49201;53.426;10.300;2022-12-29T01:40:18;100096.84;;;8.82;100.00
63111;BME280;49201;53.426;10.300;2022-12-29T01:42:44;100086.63;;;8.81;100.00
63111;BME280;49201;53.426;10.300;2022-12-29T01:45:12;100087.56;;;8.87;100.00
63111;BME280;49201;53.426;10.300;2022-12-29T01:47:56;100084.13;;;8.87;100.00
63111;BME280;49201;53.426;10.300;2022-12-29T01:50:24;100074.03;;;8.94;100.00
63111;BME280;49201;53.426;10.300;2022-12-29T01:52:58;100081.69;;;8.94;100.00
63111;BME280;49201;53.426;10.300;2022-12-29T01:55:27;100070.63;;;8.94;100.00
63111;BME280;49201;53.426;10.300;2022-12-29T01:57:56;100074.03;;;8.96;100.00
63111;BME280;49201;53.426;10.300;2022-12-29T02:00:24;100076.59;;;8.96;100.00
63111;BME280;49201;53.426;10.300;2022-12-29T02:02:54;100078.31;;;8.97;100.00
63111;BME280;49201;53.426;10.300;2022-12-29T02:05:32;100070.69;;;9.00;100.00
63111;BME280;49201;53.426;10.300;2022-12-29T02:08:00;100069.81;;;8.99;100.00
63111;BME280;49201;53.426;10.300;2022-12-29T02:10:28;100072.41;;;9.01;100.00
63111;BME280;49201;53.426;10.300;2022-12-29T02:12:55;100065.59;;;9.00;100.00
63111;BME280;49201;53.426;10.300;2022-12-29T02:15:34;100068.16;;;9.01;100.00
63111;BME280;49201;53.426;10.300;2022-12-29T02:20:42;100071.56;;;9.00;100.00
63111;BME280;49201;53.426;10.300;2022-12-29T02:29:06;100047.78;;;9.06;100.00
63111;BME280;49201;53.426;10.300;2022-12-29T02:31:46;100049.50;;;9.05;100.00
63111;BME280;49201;53.426;10.300;2022-12-29T02:34:37;100058.84;;;9.05;100.00
63111;BME280;49201;53.426;10.300;2022-12-29T02:42:46;100045.19;;;9.01;100.00
63111;BME280;49201;53.426;10.300;2022-12-29T02:50:36;100040.13;;;9.06;100.00
63111;BME280;49201;53.426;10.300;2022-12-29T02:53:09;100041.84;;;9.08;100.00
63111;BME280;49201;53.426;10.300;2022-12-29T02:55:36;100024.91;;;9.12;100.00
63111;BME280;49201;53.426;10.300;2022-12-29T02:58:22;100035.09;;;9.10;100.00
63111;BME280;49201;53.426;10.300;2022-12-29T03:03:39;100025.75;;;9.12;100.00
63111;BME280;49201;53.426;10.300;2022-12-29T03:06:16;100010.44;;;9.14;100.00
63111;BME280;49201;53.426;10.300;2022-12-29T03:11:50;100012.16;;;9.16;100.00
63111;BME280;49201;53.426;10.300;2022-12-29T03:14:48;100007.94;;;9.17;100.00
63111;BME280;49201;53.426;10.300;2022-12-29T03:18:02;100013.03;;;9.17;100.00
63111;BME280;49201;53.426;10.300;2022-12-29T03:21:00;100015.59;;;9.17;100.00
63111;BME280;49201;53.426;10.300;2022-12-29T03:23:28;100008.78;;;9.17;100.00
63111;BME280;49201;53.426;10.300;2022-12-29T03:25:58;99999.44;;;9.19;100.00
63111;BME280;49201;53.426;10.300;2022-12-29T03:28:34;99991.84;;;9.25;100.00
63111;BME280;49201;53.426;10.300;2022-12-29T03:31:03;99990.97;;;9.25;100.00
63111;BME280;49201;53.426;10.300;2022-12-29T03:33:30;99992.72;;;9.29;100.00
63111;BME280;49201;53.426;10.300;2022-12-29T03:36:03;99986.78;;;9.28;100.00
63111;BME280;49201;53.426;10.300;2022-12-29T03:38:44;99981.69;;;9.33;100.00
63111;BME280;49201;53.426;10.300;2022-12-29T03:41:15;99985.06;;;9.29;100.00
63111;BME280;49201;53.426;10.300;2022-12-29T03:43:42;99974.88;;;9.30;100.00
63111;BME280;49201;53.426;10.300;2022-12-29T03:46:08;99967.19;;;9.30;100.00
63111;BME280;49201;53.426;10.300;2022-12-29T03:48:34;99980.03;;;9.36;100.00
63111;BME280;49201;53.426;10.300;2022-12-29T03:50:59;99972.38;;;9.35;100.00
63111;BME280;49201;53.426;10.300;2022-12-29T03:53:26;99967.25;;;9.36;100.00
63111;BME280;49201;53.426;10.300;2022-12-29T03:55:52;99964.75;;;9.39;100.00
63111;BME280;49201;53.426;10.300;2022-12-29T03:58:17;99966.44;;;9.37;100.00
63111;BME280;49201;53.426;10.300;2022-12-29T04:01:04;99966.56;;;9.52;100.00
63111;BME280;49201;53.426;10.300;2022-12-29T04:03:32;99964.78;;;9.45;100.00
63111;BME280;49201;53.426;10.300;2022-12-29T04:05:58;99961.38;;;9.43;100.00
63111;BME280;49201;53.426;10.300;2022-12-29T04:08:24;99969.94;;;9.48;100.00
63111;BME280;49201;53.426;10.300;2022-12-29T04:10:49;99962.31;;;9.51;100.00
63111;BME280;49201;53.426;10.300;2022-12-29T04:13:16;99952.06;;;9.48;100.00
63111;BME280;49201;53.426;10.300;2022-12-29T04:15:43;99949.53;;;9.51;100.00
63111;BME280;49201;53.426;10.300;2022-12-29T04:18:09;99955.50;;;9.53;100.00
63111;BME280;49201;53.426;10.300;2022-12-29T04:20:34;99952.13;;;9.56;100.00
63111;BME280;49201;53.426;10.300;2022-12-29T04:23:19;99932.53;;;9.59;100.00
63111;BME280;49201;53.426;10.300;2022-12-29T04:25:47;99945.41;;;9.67;100.00
63111;BME280;49201;53.426;10.300;2022-12-29T04:28:15;99947.97;;;9.67;100.00
63111;BME280;49201;53.426;10.300;2022-12-29T04:30:49;99943.69;;;9.66;100.00
63111;BME280;49201;53.426;10.300;2022-12-29T04:33:35;99942.00;;;9.68;100.00
63111;BME280;49201;53.426;10.300;2022-12-29T04:36:01;99941.16;;;9.69;100.00
63111;BME280;49201;53.426;10.300;2022-12-29T04:38:27;99940.31;;;9.70;100.00
63111;BME280;49201;53.426;10.300;2022-12-29T04:40:53;99926.69;;;9.71;100.00
63111;BME280;49201;53.426;10.300;2022-12-29T04:43:21;99930.97;;;9.72;100.00
63111;BME280;49201;53.426;10.300;2022-12-29T04:46:12;99921.59;;;9.72;100.00
63111;BME280;49201;53.426;10.300;2022-12-29T04:49:03;99913.91;;;9.72;100.00
63111;BME280;49201;53.426;10.300;2022-12-29T04:52:12;99919.88;;;9.71;100.00
63111;BME280;49201;53.426;10.300;2022-12-29T04:54:38;99913.91;;;9.71;100.00
63111;BME280;49201;53.426;10.300;2022-12-29T04:57:10;99910.50;;;9.70;100.00
63111;BME280;49201;53.426;10.300;2022-12-29T04:59:37;99912.22;;;9.71;100.00
63111;BME280;49201;53.426;10.300;2022-12-29T05:02:03;99909.63;;;9.68;100.00
63111;BME280;49201;53.426;10.300;2022-12-29T05:04:31;99896.84;;;9.67;100.00
63111;BME280;49201;53.426;10.300;2022-12-29T05:06:56;99902.81;;;9.67;100.00
63111;BME280;49201;53.426;10.300;2022-12-29T05:09:22;99900.22;;;9.66;100.00
63111;BME280;49201;53.426;10.300;2022-12-29T05:11:49;99911.31;;;9.65;100.00
63111;BME280;49201;53.426;10.300;2022-12-29T05:14:14;99901.06;;;9.63;100.00
63111;BME280;49201;53.426;10.300;2022-12-29T05:16:40;99907.03;;;9.62;100.00
63111;BME280;49201;53.426;10.300;2022-12-29T05:19:05;99898.50;;;9.60;100.00
63111;BME280;49201;53.426;10.300;2022-12-29T05:21:31;99904.47;;;9.62;100.00
63111;BME280;49201;53.426;10.300;2022-12-29T05:23:58;99909.56;;;9.61;100.00
63111;BME280;49201;53.426;10.300;2022-12-29T05:26:23;99902.78;;;9.63;100.00
63111;BME280;49201;53.426;10.300;2022-12-29T05:29:15;99908.72;;;9.63;100.00
63111;BME280;49201;53.426;10.300;2022-12-29T05:31:41;99909.59;;;9.64;100.00
63111;BME280;49201;53.426;10.300;2022-12-29T05:34:06;99909.56;;;9.62;100.00
63111;BME280;49201;53.426;10.300;2022-12-29T05:36:32;99895.09;;;9.61;100.00
63111;BME280;49201;53.426;10.300;2022-12-29T05:39:02;99894.25;;;9.64;100.00
63111;BME280;49201;53.426;10.300;2022-12-29T05:41:29;99902.78;;;9.63;100.00
63111;BME280;49201;53.426;10.300;2022-12-29T05:44:13;99901.88;;;9.59;100.00
63111;BME280;49201;53.426;10.300;2022-12-29T05:46:44;99888.25;;;9.62;100.00
63111;BME280;49201;53.426;10.300;2022-12-29T05:49:30;99884.00;;;9.58;100.00
63111;BME280;49201;53.426;10.300;2022-12-29T05:52:14;99891.66;;;9.58;100.00
63111;BME280;49201;53.426;10.300;2022-12-29T05:54:39;99896.75;;;9.59;100.00
63111;BME280;49201;53.426;10.300;2022-12-29T05:57:10;99912.97;;;9.60;100.00
63111;BME280;49201;53.426;10.300;2022-12-29T05:59:37;99907.03;;;9.62;100.00
63111;BME280;49201;53.426;10.300;2022-12-29T06:02:04;99920.66;;;9.64;100.00
63111;BME280;49201;53.426;10.300;2022-12-29T06:04:30;99916.38;;;9.62;100.00
63111;BME280;49201;53.426;10.300;2022-12-29T06:06:56;99924.94;;;9.65;100.00
63111;BME280;49201;53.426;10.300;2022-12-29T06:09:41;99916.44;;;9.66;100.00
63111;BME280;49201;53.426;10.300;2022-12-29T06:12:07;99910.44;;;9.66;100.00
63111;BME280;49201;53.426;10.300;2022-12-29T06:14:33;99913.03;;;9.69;100.00
63111;BME280;49201;53.426;10.300;2022-12-29T06:16:59;99907.06;;;9.68;100.00
63111;BME280;49201;53.426;10.300;2022-12-29T06:19:25;99907.06;;;9.67;100.00
63111;BME280;49201;53.426;10.300;2022-12-29T06:21:51;99914.72;;;9.68;100.00
63111;BME280;49201;53.426;10.300;2022-12-29T06:24:18;99911.34;;;9.71;100.00
63111;BME280;49201;53.426;10.300;2022-12-29T06:26:43;99916.47;;;9.72;100.00
63111;BME280;49201;53.426;10.300;2022-12-29T06:29:09;99921.66;;;9.78;100.00
63111;BME280;49201;53.426;10.300;2022-12-29T06:31:35;99915.75;;;9.87;100.00
63111;BME280;49201;53.426;10.300;2022-12-29T06:34:01;99914.06;;;9.92;100.00
63111;BME280;49201;53.426;10.300;2022-12-29T06:36:28;99914.06;;;9.92;100.00
63111;BME280;49201;53.426;10.300;2022-12-29T06:38:53;99915.75;;;9.91;100.00
63111;BME280;49201;53.426;10.300;2022-12-29T06:41:20;99917.47;;;9.89;100.00
63111;BME280;49201;53.426;10.300;2022-12-29T06:44:04;99901.25;;;9.89;100.00
63111;BME280;49201;53.426;10.300;2022-12-29T06:46:48;99909.78;;;9.89;100.00
63111;BME280;49201;53.426;10.300;2022-12-29T06:49:14;99892.75;;;9.88;100.00
63111;BME280;49201;53.426;10.300;2022-12-29T06:51:39;99891.84;;;9.86;100.00
63111;BME280;49201;53.426;10.300;2022-12-29T06:54:05;99895.28;;;9.85;100.00
63111;BME280;49201;53.426;10.300;2022-12-29T06:56:31;99895.28;;;9.87;100.00
63111;BME280;49201;53.426;10.300;2022-12-29T06:58:56;99889.31;;;9.86;100.00
63111;BME280;49201;53.426;10.300;2022-12-29T07:01:22;99900.38;;;9.85;100.00
63111;BME280;49201;53.426;10.300;2022-12-29T07:03:47;99896.97;;;9.85;100.00
63111;BME280;49201;53.426;10.300;2022-12-29T07:06:13;99900.38;;;9.84;100.00
63111;BME280;49201;53.426;10.300;2022-12-29T07:08:38;99898.69;;;9.84;100.00
63111;BME280;49201;53.426;10.300;2022-12-29T07:11:04;99888.41;;;9.81;100.00
63111;BME280;49201;53.426;10.300;2022-12-29T07:13:30;99891.84;;;9.83;100.00
63111;BME280;49201;53.426;10.300;2022-12-29T07:15:55;99890.97;;;9.81;100.00
63111;BME280;49201;53.426;10.300;2022-12-29T07:18:21;99886.72;;;9.80;100.00
63111;BME280;49201;53.426;10.300;2022-12-29T07:20:46;99897.78;;;9.79;100.00
63111;BME280;49201;53.426;10.300;2022-12-29T07:23:11;99879.03;;;9.79;100.00
63111;BME280;49201;53.426;10.300;2022-12-29T07:25:37;99879.03;;;9.80;100.00
63111;BME280;49201;53.426;10.300;2022-12-29T07:28:03;99892.69;;;9.79;100.00
63111;BME280;49201;53.426;10.300;2022-12-29T07:30:29;99880.78;;;9.86;100.00
63111;BME280;49201;53.426;10.300;2022-12-29T07:32:54;99884.25;;;9.92;100.00
63111;BME280;49201;53.426;10.300;2022-12-29T07:35:20;99900.56;;;10.06;100.00
63111;BME280;49201;53.426;10.300;2022-12-29T07:37:45;99909.00;;;9.99;100.00
63111;BME280;49201;53.426;10.300;2022-12-29T07:40:11;99891.94;;;9.98;100.00
63111;BME280;49201;53.426;10.300;2022-12-29T07:42:38;99904.72;;;9.95;100.00
63111;BME280;49201;53.426;10.300;2022-12-29T07:45:07;99921.75;;;9.93;100.00
63111;BME280;49201;53.426;10.300;2022-12-29T07:47:53;99916.56;;;9.87;100.00
63111;BME280;49201;53.426;10.300;2022-12-29T07:50:18;99914.03;;;9.86;100.00
63111;BME280;49201;53.426;10.300;2022-12-29T07:52:44;99922.53;;;9.85;100.00
63111;BME280;49201;53.426;10.300;2022-12-29T07:55:10;99906.38;;;9.89;100.00
63111;BME280;49201;53.426;10.300;2022-12-29T07:57:35;99912.31;;;9.88;100.00
63111;BME280;49201;53.426;10.300;2022-12-29T08:00:01;99920.81;;;9.84;100.00
63111;BME280;49201;53.426;10.300;2022-12-29T08:02:37;99915.72;;;9.85;100.00
63111;BME280;49201;53.426;10.300;2022-12-29T08:05:03;99934.47;;;9.87;100.00
63111;BME280;49201;53.426;10.300;2022-12-29T08:07:28;99937.03;;;9.89;100.00
63111;BME280;49201;53.426;10.300;2022-12-29T08:09:54;99920.00;;;9.89;100.00
63111;BME280;49201;53.426;10.300;2022-12-29T08:12:19;99925.97;;;9.91;100.00
63111;BME280;49201;53.426;10.300;2022-12-29T08:14:45;99937.94;;;9.95;100.00
63111;BME280;49201;53.426;10.300;2022-12-29T08:17:10;99941.38;;;9.96;100.00
63111;BME280;49201;53.426;10.300;2022-12-29T08:19:36;99935.41;;;9.97;100.00
63111;BME280;49201;53.426;10.300;2022-12-29T08:22:02;99935.41;;;9.98;100.00
63111;BME280;49201;53.426;10.300;2022-12-29T08:24:27;99937.09;;;9.96;100.00
63111;BME280;49201;53.426;10.300;2022-12-29T08:26:53;99949.06;;;9.97;100.00
63111;BME280;49201;53.426;10.300;2022-12-29T08:29:18;99949.03;;;9.99;100.00
63111;BME280;49201;53.426;10.300;2022-12-29T08:31:44;99950.78;;;10.00;100.00
63111;BME280;49201;53.426;10.300;2022-12-29T08:34:10;99955.00;;;9.98;100.00
63111;BME280;49201;53.426;10.300;2022-12-29T08:36:36;99965.25;;;9.98;100.00
63111;BME280;49201;53.426;10.300;2022-12-29T08:39:01;99960.97;;;9.92;100.00
63111;BME280;49201;53.426;10.300;2022-12-29T08:41:27;99962.59;;;9.86;100.00
63111;BME280;49201;53.426;10.300;2022-12-29T08:43:52;99956.66;;;9.88;100.00
63111;BME280;49201;53.426;10.300;2022-12-29T08:46:18;99961.78;;;9.90;100.00
63111;BME280;49201;53.426;10.300;2022-12-29T08:48:44;99959.38;;;10.05;100.00
63111;BME280;49201;53.426;10.300;2022-12-29T08:51:10;99964.56;;;10.17;100.00
63111;BME280;49201;53.426;10.300;2022-12-29T08:53:35;99968.84;;;10.21;100.00
63111;BME280;49201;53.426;10.300;2022-12-29T08:56:01;99965.41;;;10.11;100.00
63111;BME280;49201;53.426;10.300;2022-12-29T08:58:27;99971.34;;;10.12;100.00
63111;BME280;49201;53.426;10.300;2022-12-29T09:00:54;99979.94;;;10.21;100.00
63111;BME280;49201;53.426;10.300;2022-12-29T09:03:21;99985.94;;;10.26;100.00
63111;BME280;49201;53.426;10.300;2022-12-29T09:05:54;99990.16;;;10.18;100.00
63111;BME280;49201;53.426;10.300;2022-12-29T09:08:20;99993.53;;;10.16;100.00
63111;BME280;49201;53.426;10.300;2022-12-29T09:10:46;99994.41;;;10.16;100.00
63111;BME280;49201;53.426;10.300;2022-12-29T09:13:12;99982.47;;;10.18;100.00
63111;BME280;49201;53.426;10.300;2022-12-29T09:15:38;99982.47;;;10.17;100.00
63111;BME280;49201;53.426;10.300;2022-12-29T09:18:04;99985.97;;;10.32;100.00
63111;BME280;49201;53.426;10.300;2022-12-29T09:20:29;99987.72;;;10.36;100.00
63111;BME280;49201;53.426;10.300;2022-12-29T09:22:54;99987.69;;;10.29;99.62
63111;BME280;49201;53.426;10.300;2022-12-29T09:25:20;99979.13;;;10.25;98.96
63111;BME280;49201;53.426;10.300;2022-12-29T09:27:47;100004.72;;;10.30;98.95
63111;BME280;49201;53.426;10.300;2022-12-29T09:30:13;99993.66;;;10.29;98.68
63111;BME280;49201;53.426;10.300;2022-12-29T09:32:40;100005.59;;;10.29;98.53
63111;BME280;49201;53.426;10.300;2022-12-29T09:35:06;100005.56;;;10.27;99.16
63111;BME280;49201;53.426;10.300;2022-12-29T09:37:31;100003.06;;;10.32;97.82
63111;BME280;49201;53.426;10.300;2022-12-29T09:39:57;100014.19;;;10.37;96.96
63111;BME280;49201;53.426;10.300;2022-12-29T09:42:38;100017.59;;;10.39;96.07
63111;BME280;49201;53.426;10.300;2022-12-29T09:45:13;100017.56;;;10.36;95.75
63111;BME280;49201;53.426;10.300;2022-12-29T09:47:41;100012.44;;;10.37;95.61
63111;BME280;49201;53.426;10.300;2022-12-29T09:50:20;100021.03;;;10.45;95.76
63111;BME280;49201;53.426;10.300;2022-12-29T09:52:59;100016.84;;;10.55;94.58
63111;BME280;49201;53.426;10.300;2022-12-29T09:55:42;100010.97;;;10.74;94.30
63111;BME280;49201;53.426;10.300;2022-12-29T09:58:15;100006.69;;;10.68;93.51
63111;BME280;49201;53.426;10.300;2022-12-29T10:01:05;100016.97;;;10.76;92.55
63111;BME280;49201;53.426;10.300;2022-12-29T10:03:42;100019.59;;;10.92;91.60
63111;BME280;49201;53.426;10.300;2022-12-29T10:06:33;100029.09;;;11.10;91.41
63111;BME280;49201;53.426;10.300;2022-12-29T10:09:23;100021.44;;;11.22;90.43
63111;BME280;49201;53.426;10.300;2022-12-29T10:12:16;100013.72;;;11.14;90.14
63111;BME280;49201;53.426;10.300;2022-12-29T10:15:04;100003.44;;;11.01;91.74
63111;BME280;49201;53.426;10.300;2022-12-29T10:20:20;100010.38;;;11.41;90.64
63111;BME280;49201;53.426;10.300;2022-12-29T10:25:46;100006.97;;;11.52;90.41
63111;BME280;49201;53.426;10.300;2022-12-29T10:30:46;100015.44;;;11.23;91.21
63111;BME280;49201;53.426;10.300;2022-12-29T10:33:17;100016.44;;;11.79;88.80
63111;BME280;49201;53.426;10.300;2022-12-29T10:35:44;100012.16;;;12.36;86.22
63111;BME280;49201;53.426;10.300;2022-12-29T10:38:30;99999.22;;;14.29;75.21
63111;BME280;49201;53.426;10.300;2022-12-29T10:41:08;99997.50;;;14.28;74.80
63111;BME280;49201;53.426;10.300;2022-12-29T10:43:46;100016.31;;;12.91;78.98
63111;BME280;49201;53.426;10.300;2022-12-29T10:46:18;100016.47;;;11.91;84.47
63111;BME280;49201;53.426;10.300;2022-12-29T10:48:46;100016.47;;;11.89;85.87
63111;BME280;49201;53.426;10.300;2022-12-29T10:53:57;100016.47;;;12.37;81.98
63111;BME280;49201;53.426;10.300;2022-12-29T10:56:35;100013.91;;;11.91;84.96
63111;BME280;49201;53.426;10.300;2022-12-29T10:59:23;100007.06;;;11.67;85.71
63111;BME280;49201;53.426;10.300;2022-12-29T11:04:57;100029.13;;;11.28;87.39
63111;BME280;49201;53.426;10.300;2022-12-29T11:07:28;100006.13;;;11.49;87.16
63111;BME280;49201;53.426;10.300;2022-12-29T11:10:29;100007.06;;;12.12;83.56
63111;BME280;49201;53.426;10.300;2022-12-29T11:13:00;100020.72;;;11.90;83.74
63111;BME280;49201;53.426;10.300;2022-12-29T11:15:26;100025.00;;;11.64;83.49
63111;BME280;49201;53.426;10.300;2022-12-29T11:17:57;100015.56;;;11.65;83.35
63111;BME280;49201;53.426;10.300;2022-12-29T11:20:36;100011.31;;;11.64;82.68
63111;BME280;49201;53.426;10.300;2022-12-29T11:23:04;100020.72;;;11.62;82.55
63111;BME280;49201;53.426;10.300;2022-12-29T11:25:30;100010.41;;;11.57;83.24
63111;BME280;49201;53.426;10.300;2022-12-29T11:28:01;100008.69;;;11.50;83.52
63111;BME280;49201;53.426;10.300;2022-12-29T11:30:29;100018.06;;;11.35;84.52
63111;BME280;49201;53.426;10.300;2022-12-29T11:32:56;100031.66;;;11.19;84.54
63111;BME280;49201;53.426;10.300;2022-12-29T11:38:01;100021.31;;;10.96;85.66
63111;BME280;49201;53.426;10.300;2022-12-29T11:40:27;100022.16;;;10.89;88.01
63111;BME280;49201;53.426;10.300;2022-12-29T11:42:55;100034.13;;;10.95;89.39
63111;BME280;49201;53.426;10.300;2022-12-29T11:45:24;100029.00;;;10.95;88.90
63111;BME280;49201;53.426;10.300;2022-12-29T11:47:53;100035.75;;;10.78;89.21
63111;BME280;49201;53.426;10.300;2022-12-29T11:50:25;100022.09;;;10.77;89.48
63111;BME280;49201;53.426;10.300;2022-12-29T11:52:59;100023.28;;;11.69;87.22
63111;BME280;49201;53.426;10.300;2022-12-29T11:55:26;100024.16;;;11.91;82.93
63111;BME280;49201;53.426;10.300;2022-12-29T11:57:54;100024.88;;;11.31;86.85
63111;BME280;49201;53.426;10.300;2022-12-29T12:00:23;100023.88;;;10.92;89.41
63111;BME280;49201;53.426;10.300;2022-12-29T12:03:03;100031.44;;;10.66;91.28
63111;BME280;49201;53.426;10.300;2022-12-29T12:05:35;100027.09;;;10.55;91.30
63111;BME280;49201;53.426;10.300;2022-12-29T12:10:40;100018.63;;;10.68;92.07
63111;BME280;49201;53.426;10.300;2022-12-29T12:13:27;100018.66;;;10.78;91.90
63111;BME280;49201;53.426;10.300;2022-12-29T12:18:47;100021.22;;;10.74;91.68
63111;BME280;49201;53.426;10.300;2022-12-29T12:24:00;100018.78;;;11.02;90.66
63111;BME280;49201;53.426;10.300;2022-12-29T12:26:39;100009.53;;;11.37;89.74
63111;BME280;49201;53.426;10.300;2022-12-29T12:29:15;100019.69;;;11.18;87.95
63111;BME280;49201;53.426;10.300;2022-12-29T12:34:30;100003.66;;;11.92;83.93
63111;BME280;49201;53.426;10.300;2022-12-29T12:39:27;99995.94;;;11.59;83.25
63111;BME280;49201;53.426;10.300;2022-12-29T12:48:09;100018.84;;;11.19;82.19
63111;BME280;49201;53.426;10.300;2022-12-29T12:50:52;100018.84;;;11.16;81.60
63111;BME280;49201;53.426;10.300;2022-12-29T12:56:13;100005.16;;;11.11;81.66
63111;BME280;49201;53.426;10.300;2022-12-29T13:02:01;100010.31;;;11.17;81.00
63111;BME280;49201;53.426;10.300;2022-12-29T13:12:42;100034.31;;;11.43;77.99
63111;BME280;49201;53.426;10.300;2022-12-29T13:20:41;100037.69;;;11.36;79.36
63111;BME280;49201;53.426;10.300;2022-12-29T13:23:20;100033.47;;;11.38;79.43
63111;BME280;49201;53.426;10.300;2022-12-29T13:26:05;100034.31;;;11.40;78.32
63111;BME280;49201;53.426;10.300;2022-12-29T13:31:33;100044.50;;;11.28;79.96
63111;BME280;49201;53.426;10.300;2022-12-29T13:34:19;100068.41;;;11.25;79.21
63111;BME280;49201;53.426;10.300;2022-12-29T13:36:54;100050.50;;;11.24;79.00
63111;BME280;49201;53.426;10.300;2022-12-29T13:39:34;100059.88;;;11.22;79.85
63111;BME280;49201;53.426;10.300;2022-12-29T13:42:01;100058.16;;;11.25;79.66
63111;BME280;49201;53.426;10.300;2022-12-29T13:44:43;100062.47;;;11.26;79.53
63111;BME280;49201;53.426;10.300;2022-12-29T13:49:56;100068.50;;;11.45;79.61
63111;BME280;49201;53.426;10.300;2022-12-29T14:00:54;100079.47;;;11.14;81.26
63111;BME280;49201;53.426;10.300;2022-12-29T14:03:51;100081.16;;;11.06;81.87
63111;BME280;49201;53.426;10.300;2022-12-29T14:08:46;100081.13;;;10.98;82.50
63111;BME280;49201;53.426;10.300;2022-12-29T14:11:15;100101.59;;;11.01;81.92
63111;BME280;49201;53.426;10.300;2022-12-29T14:13:44;100101.59;;;11.00;83.05
63111;BME280;49201;53.426;10.300;2022-12-29T14:16:32;100104.16;;;10.97;82.87
63111;BME280;49201;53.426;10.300;2022-12-29T14:19:28;100104.13;;;10.92;83.60
63111;BME280;49201;53.426;10.300;2022-12-29T14:21:58;100119.47;;;10.91;85.00
63111;BME280;49201;53.426;10.300;2022-12-29T14:34:50;100162.91;;;10.71;84.06
63111;BME280;49201;53.426;10.300;2022-12-29T14:37:33;100155.97;;;10.63;84.61
63111;BME280;49201;53.426;10.300;2022-12-29T14:40:23;100172.16;;;10.56;85.68
63111;BME280;49201;53.426;10.300;2022-12-29T14:42:52;100174.66;;;10.53;85.74
63111;BME280;49201;53.426;10.300;2022-12-29T14:47:47;100190.78;;;10.41;86.27
63111;BME280;49201;53.426;10.300;2022-12-29T14:50:56;100161.72;;;10.36;86.10
63111;BME280;49201;53.426;10.300;2022-12-29T14:53:04;100177.88;;;10.31;85.81
63111;BME280;49201;53.426;10.300;2022-12-29T14:55:48;100188.09;;;10.28;86.35
63111;BME280;49201;53.426;10.300;2022-12-29T14:58:25;100185.53;;;10.26;87.03